createdAt,value
2023-01-21T00:01:20.154Z,18907.50
2023-01-21T00:03:48.690Z,18895.31
2023-01-21T00:06:18.198Z,18901.41
2023-01-21T00:08:46.355Z,18903.44
2023-01-21T00:11:16.980Z,18897.34
2023-01-21T00:13:45.864Z,18891.25
2023-01-21T00:16:14.724Z,18903.44
2023-01-21T00:18:43.375Z,18870.94
2023-01-21T00:21:11.675Z,18921.75
2023-01-21T00:23:41.214Z,18879.06
2023-01-21T00:26:12.832Z,18905.47
2023-01-21T00:28:43.762Z,18915.63
2023-01-21T00:31:13.186Z,18897.34
2023-01-21T00:33:41.468Z,18907.50
2023-01-21T00:36:13.858Z,18913.59
2023-01-21T00:38:43.611Z,18901.41
2023-01-21T00:41:14.360Z,18950.19
2023-01-21T00:43:44.011Z,18891.25
2023-01-21T00:46:12.920Z,18929.88
2023-01-21T00:48:41.368Z,18905.47
2023-01-21T00:51:09.960Z,18919.69
2023-01-21T00:53:41.993Z,18887.19
2023-01-21T00:56:14.696Z,18935.97
2023-01-21T00:58:44.288Z,18899.38
2023-01-21T01:01:16.769Z,18935.97
2023-01-21T01:03:46.434Z,18887.19
2023-01-21T01:06:18.623Z,18899.38
2023-01-21T01:08:49.465Z,18909.53
2023-01-21T01:11:21.449Z,18895.31
2023-01-21T01:13:49.708Z,18938.00
2023-01-21T01:16:18.332Z,18911.56
2023-01-21T01:18:47.228Z,18915.63
2023-01-21T01:21:19.114Z,18895.31
2023-01-21T01:23:47.798Z,18931.91
2023-01-21T01:26:19.768Z,18948.16
2023-01-21T01:28:48.407Z,18889.22
2023-01-21T01:31:19.008Z,18911.56
2023-01-21T01:33:48.210Z,18911.56
2023-01-21T01:36:19.367Z,18860.78
2023-01-21T01:38:47.949Z,18895.31
2023-01-21T01:41:20.877Z,18893.28
2023-01-21T01:44:27.558Z,18913.59
2023-01-21T01:47:00.901Z,18915.63
2023-01-21T01:49:29.095Z,18887.19
2023-01-21T01:52:04.301Z,18897.34
2023-01-21T01:54:39.239Z,18889.22
2023-01-21T01:57:13.063Z,18881.09
2023-01-21T01:59:44.171Z,18909.53
2023-01-21T02:02:17.640Z,18897.34
2023-01-21T02:04:51.166Z,18899.38
2023-01-21T02:07:23.563Z,18864.84
2023-01-21T02:09:55.231Z,18885.16
2023-01-21T02:12:25.685Z,18870.94
2023-01-21T02:14:53.886Z,18889.22
2023-01-21T02:17:44.953Z,18870.94
2023-01-21T02:20:59.711Z,18944.09
2023-01-21T02:23:57.000Z,18899.38
2023-01-21T02:27:06.770Z,18887.19
2023-01-21T02:30:12.741Z,18872.97
2023-01-21T02:33:20.013Z,18862.81
2023-01-21T02:36:02.223Z,18899.38
2023-01-21T02:38:35.616Z,18872.97
2023-01-21T02:41:14.829Z,18868.91
2023-01-21T02:43:54.844Z,18885.16
2023-01-21T02:46:32.443Z,18858.75
2023-01-21T02:49:08.472Z,18870.94
2023-01-21T02:51:36.904Z,18870.94
2023-01-21T02:54:15.778Z,18879.06
2023-01-21T02:56:45.949Z,18911.56
2023-01-21T02:59:14.432Z,18875.00
2023-01-21T03:02:03.232Z,18870.94
2023-01-21T03:04:54.296Z,18909.53
2023-01-21T03:07:30.431Z,18870.94
2023-01-21T03:10:10.651Z,18866.88
2023-01-21T03:12:50.300Z,18875.00
2023-01-21T03:15:45.206Z,18846.56
2023-01-21T03:18:21.087Z,18901.41
2023-01-21T03:20:56.276Z,18864.84
2023-01-21T03:23:30.992Z,18893.28
2023-01-21T03:26:01.612Z,18883.13
2023-01-21T03:28:37.263Z,18885.16
2023-01-21T03:31:11.449Z,18897.34
2023-01-21T03:33:46.769Z,18868.91
2023-01-21T03:36:29.908Z,18891.25
2023-01-21T03:39:04.001Z,18885.16
2023-01-21T03:41:40.214Z,18899.38
2023-01-21T03:44:08.817Z,18887.19
2023-01-21T03:46:45.102Z,18868.91
2023-01-21T03:49:22.609Z,18866.88
2023-01-21T03:51:58.948Z,18875.00
2023-01-21T03:54:27.235Z,18881.09
2023-01-21T03:56:55.381Z,18885.16
2023-01-21T03:59:23.528Z,18883.13
2023-01-21T04:01:51.670Z,18891.25
2023-01-21T04:04:19.789Z,18879.06
2023-01-21T04:06:47.896Z,18897.34
2023-01-21T04:09:17.407Z,18885.16
2023-01-21T04:11:45.525Z,18877.03
2023-01-21T04:14:13.683Z,18826.25
2023-01-21T04:16:41.884Z,18883.13
2023-01-21T04:19:10.416Z,18868.91
2023-01-21T04:21:38.542Z,18866.88
2023-01-21T04:24:07.923Z,18868.91
2023-01-21T04:26:37.360Z,18870.94
2023-01-21T04:29:05.745Z,18905.47
2023-01-21T04:31:33.932Z,18852.66
2023-01-21T04:34:02.657Z,18848.59
2023-01-21T04:36:30.905Z,18850.63
2023-01-21T04:38:59.000Z,18870.94
2023-01-21T04:41:27.138Z,18866.88
2023-01-21T04:43:56.584Z,18828.28
2023-01-21T04:46:24.740Z,18879.06
2023-01-21T04:48:53.111Z,18870.94
2023-01-21T04:51:21.299Z,18872.97
2023-01-21T04:53:49.469Z,18834.38
2023-01-21T04:56:17.547Z,18877.03
2023-01-21T04:58:45.652Z,18872.97
2023-01-21T05:01:15.165Z,18858.75
2023-01-21T05:03:43.381Z,18883.13
2023-01-21T05:06:11.584Z,18862.81
2023-01-21T05:08:39.740Z,18870.94
2023-01-21T05:11:09.711Z,18889.22
2023-01-21T05:13:37.785Z,18879.06
2023-01-21T05:16:09.808Z,18893.28
2023-01-21T05:18:40.681Z,18856.72
2023-01-21T05:21:09.558Z,18830.31
2023-01-21T05:23:37.844Z,18866.88
2023-01-21T05:26:06.419Z,18836.41
2023-01-21T05:28:34.593Z,18875.00
2023-01-21T05:31:04.119Z,18887.19
2023-01-21T05:33:33.082Z,18858.75
2023-01-21T05:36:04.016Z,18864.84
2023-01-21T05:38:33.044Z,18877.03
2023-01-21T05:41:03.501Z,18872.97
2023-01-21T05:43:32.275Z,18854.69
2023-01-21T05:46:00.448Z,18842.50
2023-01-21T05:48:30.076Z,18864.84
2023-01-21T05:50:58.619Z,18887.19
2023-01-21T05:53:28.381Z,18866.88
2023-01-21T05:55:58.320Z,18901.41
2023-01-21T05:58:26.728Z,18834.38
2023-01-21T06:00:54.901Z,18854.69
2023-01-21T06:03:23.073Z,18868.91
2023-01-21T06:05:51.493Z,18854.69
2023-01-21T06:08:20.318Z,18862.81
2023-01-21T06:10:49.812Z,18885.16
2023-01-21T06:13:18.142Z,18814.03
2023-01-21T06:15:46.303Z,18889.22
2023-01-21T06:18:14.819Z,18864.84
2023-01-21T06:20:42.961Z,18881.09
2023-01-21T06:23:11.066Z,18836.41
2023-01-21T06:25:39.165Z,18842.50
2023-01-21T06:28:11.403Z,18862.81
2023-01-21T06:30:39.891Z,18875.00
2023-01-21T06:33:08.269Z,18885.16
2023-01-21T06:35:36.995Z,18883.13
2023-01-21T06:38:05.266Z,18887.19
2023-01-21T06:40:33.367Z,18830.31
2023-01-21T06:43:01.470Z,18879.06
2023-01-21T06:45:30.977Z,18879.06
2023-01-21T06:47:59.090Z,18877.03
2023-01-21T06:50:27.308Z,18893.28
2023-01-21T06:52:55.420Z,18868.91
2023-01-21T06:55:23.546Z,18856.72
2023-01-21T06:57:51.684Z,18836.41
2023-01-21T07:00:20.786Z,18875.00
2023-01-21T07:02:50.281Z,18868.91
2023-01-21T07:05:20.634Z,18844.53
2023-01-21T07:07:48.731Z,18866.88
2023-01-21T07:10:17.885Z,18887.19
2023-01-21T07:12:46.178Z,18889.22
2023-01-21T07:15:14.507Z,18877.03
2023-01-21T07:17:42.795Z,18856.72
2023-01-21T07:20:13.184Z,18885.16
2023-01-21T07:22:41.682Z,18870.94
2023-01-21T07:25:10.887Z,18862.81
2023-01-21T07:27:39.017Z,18862.81
2023-01-21T07:30:09.210Z,18870.94
2023-01-21T07:32:37.305Z,18889.22
2023-01-21T07:35:06.146Z,18870.94
2023-01-21T07:37:35.667Z,18862.81
2023-01-21T07:40:03.923Z,18856.72
2023-01-21T07:42:32.048Z,18866.88
2023-01-21T07:45:02.759Z,18897.34
2023-01-21T07:47:31.234Z,18895.31
2023-01-21T07:50:04.731Z,18907.50
2023-01-21T07:52:35.078Z,18877.03
2023-01-21T07:55:03.440Z,18862.81
2023-01-21T07:57:31.943Z,18862.81
2023-01-21T08:00:00.104Z,18901.41
2023-01-21T08:02:28.441Z,18895.31
2023-01-21T08:04:56.586Z,18881.09
2023-01-21T08:07:24.783Z,18881.09
2023-01-21T08:09:54.277Z,18879.06
2023-01-21T08:12:22.443Z,18862.81
2023-01-21T08:14:50.596Z,18866.88
2023-01-21T08:17:18.755Z,18919.69
2023-01-21T08:19:46.827Z,18905.47
2023-01-21T08:22:14.954Z,18899.38
2023-01-21T08:24:43.051Z,18891.25
2023-01-21T08:27:12.515Z,18901.41
2023-01-21T08:29:40.616Z,18891.25
2023-01-21T08:32:08.759Z,18868.91
2023-01-21T08:34:37.062Z,18879.06
2023-01-21T08:37:05.120Z,18852.66
2023-01-21T08:39:33.384Z,18885.16
2023-01-21T08:42:01.554Z,18885.16
2023-01-21T08:44:31.032Z,18883.13
2023-01-21T08:46:59.225Z,18889.22
2023-01-21T08:49:27.310Z,18891.25
2023-01-21T08:51:55.668Z,18919.69
2023-01-21T08:54:23.783Z,18893.28
2023-01-21T08:56:51.912Z,18877.03
2023-01-21T08:59:27.132Z,18885.16
2023-01-21T09:01:57.175Z,18903.44
2023-01-21T09:04:25.336Z,18919.69
2023-01-21T09:06:53.808Z,18889.22
2023-01-21T09:09:22.005Z,18921.75
2023-01-21T09:11:50.220Z,18899.38
2023-01-21T09:14:18.324Z,18895.31
2023-01-21T09:16:49.068Z,18911.56
2023-01-21T09:19:18.650Z,18909.53
2023-01-21T09:21:46.887Z,18879.06
2023-01-21T09:24:15.022Z,18893.28
2023-01-21T09:26:44.993Z,18911.56
2023-01-21T09:29:13.445Z,18929.88
2023-01-21T09:31:41.621Z,18875.00
2023-01-21T09:34:11.726Z,18907.50
2023-01-21T09:36:41.469Z,18889.22
2023-01-21T09:39:09.653Z,18933.94
2023-01-21T09:41:42.714Z,18931.91
2023-01-21T09:44:26.577Z,18921.75
2023-01-21T09:47:01.898Z,18917.66
2023-01-21T09:49:37.323Z,18946.13
2023-01-21T09:52:27.222Z,18935.97
2023-01-21T09:54:56.966Z,18933.94
2023-01-21T09:57:54.468Z,18946.13
2023-01-21T10:00:37.788Z,18940.03
2023-01-21T10:03:21.317Z,18944.09
2023-01-21T10:06:12.396Z,18933.94
2023-01-21T10:09:00.602Z,18946.13
2023-01-21T10:11:46.720Z,18942.06
2023-01-21T10:14:52.731Z,18994.88
2023-01-21T10:17:35.168Z,18956.28
2023-01-21T10:20:14.629Z,18935.97
2023-01-21T10:22:52.112Z,18952.22
2023-01-21T10:25:32.185Z,18940.03
2023-01-21T10:28:07.313Z,18956.28
2023-01-21T10:30:41.028Z,18956.28
2023-01-21T10:33:21.120Z,18982.69
2023-01-21T10:36:30.176Z,18982.69
2023-01-21T10:39:09.911Z,18964.41
2023-01-21T10:42:26.331Z,18964.41
2023-01-21T10:45:05.754Z,18968.47
2023-01-21T10:47:44.882Z,18952.22
2023-01-21T10:50:29.737Z,18984.72
2023-01-21T10:53:07.705Z,18956.28
2023-01-21T10:55:56.953Z,18980.66
2023-01-21T10:58:42.353Z,18968.47
2023-01-21T11:01:19.693Z,18988.78
2023-01-21T11:03:52.713Z,18976.59
2023-01-21T11:06:24.058Z,18996.91
2023-01-21T11:09:02.520Z,18996.91
2023-01-21T11:11:34.618Z,19023.34
2023-01-21T11:14:04.390Z,18964.41
2023-01-21T11:16:43.879Z,18942.06
2023-01-21T11:19:16.548Z,18980.66
2023-01-21T11:22:04.980Z,18976.59
2023-01-21T11:24:43.537Z,18998.94
2023-01-21T11:27:22.523Z,19000.97
2023-01-21T11:29:52.106Z,18968.47
2023-01-21T11:32:24.026Z,19005.03
2023-01-21T11:35:02.500Z,19027.41
2023-01-21T11:37:33.634Z,19009.09
2023-01-21T11:40:07.105Z,19011.13
2023-01-21T11:42:48.182Z,18990.81
2023-01-21T11:45:36.274Z,18984.72
2023-01-21T11:48:21.429Z,18986.75
2023-01-21T11:50:49.626Z,19037.56
2023-01-21T11:53:20.014Z,18988.78
2023-01-21T11:55:51.247Z,19009.09
2023-01-21T11:58:25.008Z,18988.78
2023-01-21T12:00:57.703Z,18998.94
2023-01-21T12:03:32.334Z,19029.44
2023-01-21T12:06:01.580Z,19045.69
2023-01-21T12:08:34.817Z,19074.13
2023-01-21T12:11:07.595Z,19041.63
2023-01-21T12:13:45.955Z,19055.84
2023-01-21T12:16:35.199Z,19021.31
2023-01-21T12:19:36.179Z,19023.34
2023-01-21T12:22:43.467Z,19033.50
2023-01-21T12:25:29.021Z,19031.47
2023-01-21T12:28:19.751Z,19021.31
2023-01-21T12:31:03.316Z,19021.31
2023-01-21T12:33:47.685Z,19039.59
2023-01-21T12:36:22.936Z,19041.63
2023-01-21T12:39:09.293Z,19035.53
2023-01-21T12:41:41.083Z,19027.41
2023-01-21T12:44:27.385Z,19023.34
2023-01-21T12:47:03.568Z,19023.34
2023-01-21T12:49:55.081Z,19055.84
2023-01-21T12:52:31.537Z,19025.38
2023-01-21T12:55:13.018Z,19045.69
2023-01-21T12:57:52.162Z,19027.41
2023-01-21T13:00:25.556Z,19066.00
2023-01-21T13:03:04.821Z,19049.75
2023-01-21T13:05:45.285Z,19066.00
2023-01-21T13:08:49.541Z,19035.53
2023-01-21T13:11:22.248Z,18990.81
2023-01-21T13:14:03.124Z,19043.66
2023-01-21T13:16:33.006Z,19015.19
2023-01-21T13:19:01.471Z,19037.56
2023-01-21T13:21:42.822Z,18966.44
2023-01-21T13:24:18.788Z,19055.84
2023-01-21T13:27:02.966Z,18978.63
2023-01-21T13:29:47.276Z,19011.13
2023-01-21T13:32:37.952Z,19015.19
2023-01-21T13:35:24.053Z,19021.31
2023-01-21T13:38:06.001Z,19011.13
2023-01-21T13:40:51.646Z,19013.16
2023-01-21T13:43:54.569Z,19029.44
2023-01-21T13:46:49.139Z,18996.91
2023-01-21T13:49:54.133Z,19003.00
2023-01-21T13:52:32.819Z,18980.66
2023-01-21T13:55:25.538Z,18976.59
2023-01-21T13:58:05.635Z,18966.44
2023-01-21T14:00:39.731Z,18976.59
2023-01-21T14:03:25.257Z,19015.19
2023-01-21T14:06:01.014Z,18988.78
2023-01-21T14:08:37.367Z,19023.34
2023-01-21T14:11:16.664Z,19009.09
2023-01-21T14:14:28.916Z,18984.72
2023-01-21T14:17:23.899Z,18982.69
2023-01-21T14:20:33.269Z,18990.81
2023-01-21T14:23:37.132Z,18966.44
2023-01-21T14:26:26.525Z,18996.91
2023-01-21T14:29:09.683Z,18980.66
2023-01-21T14:31:45.524Z,18974.56
2023-01-21T14:34:21.067Z,18992.84
2023-01-21T14:37:03.420Z,18960.34
2023-01-21T14:39:47.416Z,18982.69
2023-01-21T14:42:19.008Z,18990.81
2023-01-21T14:45:05.960Z,18976.59
2023-01-21T14:47:50.036Z,18986.75
2023-01-21T14:50:53.777Z,18952.22
2023-01-21T14:53:26.602Z,18942.06
2023-01-21T14:56:13.537Z,18968.47
2023-01-21T14:58:48.989Z,18952.22
2023-01-21T15:01:39.617Z,18972.53
2023-01-21T15:04:21.265Z,18962.38
2023-01-21T15:06:54.888Z,18982.69
2023-01-21T15:09:30.522Z,18950.19
2023-01-21T15:12:03.541Z,18976.59
2023-01-21T15:14:39.471Z,18992.84
2023-01-21T15:18:03.935Z,18976.59
2023-01-21T15:20:51.668Z,18946.13
2023-01-21T15:23:36.780Z,18950.19
2023-01-21T15:26:30.336Z,18940.03
2023-01-21T15:29:34.614Z,18960.34
2023-01-21T15:32:29.585Z,18972.53
2023-01-21T15:35:04.340Z,18974.56
2023-01-21T15:37:38.893Z,18964.41
2023-01-21T15:40:26.912Z,18956.28
2023-01-21T15:43:04.355Z,18968.47
2023-01-21T15:45:47.286Z,18956.28
2023-01-21T15:48:42.661Z,18946.13
2023-01-21T15:51:30.481Z,18948.16
2023-01-21T15:54:21.477Z,18940.03
2023-01-21T15:57:08.749Z,18938.00
2023-01-21T15:59:59.389Z,18925.81
2023-01-21T16:02:32.703Z,18919.69
2023-01-21T16:05:23.167Z,18919.69
2023-01-21T16:08:12.267Z,18915.63
2023-01-21T16:10:55.479Z,18899.38
2023-01-21T16:13:37.353Z,18911.56
2023-01-21T16:16:18.042Z,18899.38
2023-01-21T16:18:56.085Z,18897.34
2023-01-21T16:21:30.361Z,18877.03
2023-01-21T16:24:10.989Z,18895.31
2023-01-21T16:26:39.149Z,18895.31
2023-01-21T16:29:13.197Z,18891.25
2023-01-21T16:31:50.709Z,18891.25
2023-01-21T16:34:40.653Z,18899.38
2023-01-21T16:37:12.246Z,18854.69
2023-01-21T16:39:42.914Z,18872.97
2023-01-21T16:42:27.364Z,18854.69
2023-01-21T16:44:55.612Z,18860.78
2023-01-21T16:47:30.878Z,18850.63
2023-01-21T16:49:59.088Z,18844.53
2023-01-21T16:52:27.977Z,18868.91
2023-01-21T16:54:57.627Z,18866.88
2023-01-21T16:57:31.620Z,18838.44
2023-01-21T17:00:02.500Z,18858.75
2023-01-21T17:02:33.995Z,18816.06
2023-01-21T17:05:05.901Z,18858.75
2023-01-21T17:07:42.321Z,18809.97
2023-01-21T17:10:23.418Z,18838.44
2023-01-21T17:12:56.732Z,18836.41
2023-01-21T17:15:31.369Z,18848.59
2023-01-21T17:18:01.670Z,18826.25
2023-01-21T17:20:41.532Z,18844.53
2023-01-21T17:23:17.719Z,18820.16
2023-01-21T17:25:56.666Z,18846.56
2023-01-21T17:28:39.788Z,18856.72
2023-01-21T17:31:27.673Z,18820.16
2023-01-21T17:34:07.239Z,18826.25
2023-01-21T17:36:38.957Z,18791.69
2023-01-21T17:39:09.849Z,18820.16
2023-01-21T17:41:41.684Z,18816.06
2023-01-21T17:44:20.150Z,18793.72
2023-01-21T17:46:51.116Z,18789.66
2023-01-21T17:49:23.954Z,18793.72
2023-01-21T17:51:56.587Z,18824.22
2023-01-21T17:54:29.332Z,18777.47
2023-01-21T17:57:01.025Z,18775.44
2023-01-21T17:59:38.661Z,18818.09
2023-01-21T18:02:12.604Z,18834.38
2023-01-21T18:04:41.199Z,18779.50
2023-01-21T18:07:22.757Z,18799.81
2023-01-21T18:09:51.562Z,18803.88
2023-01-21T18:12:21.167Z,18832.34
2023-01-21T18:14:49.483Z,18773.41
2023-01-21T18:17:21.155Z,18773.41
2023-01-21T18:19:49.573Z,18771.38
2023-01-21T18:22:24.552Z,18785.59
2023-01-21T18:24:52.655Z,18797.78
2023-01-21T18:27:26.008Z,18781.53
2023-01-21T18:29:54.848Z,18803.88
2023-01-21T18:32:22.997Z,18812.00
2023-01-21T18:34:51.127Z,18838.44
2023-01-21T18:37:21.183Z,18765.28
2023-01-21T18:39:49.372Z,18781.53
2023-01-21T18:42:19.271Z,18816.06
2023-01-21T18:44:48.763Z,18795.75
2023-01-21T18:47:20.430Z,18814.03
2023-01-21T18:49:49.672Z,18791.69
2023-01-21T18:52:21.677Z,18795.75
2023-01-21T18:54:49.806Z,18793.72
2023-01-21T18:57:22.478Z,18805.91
2023-01-21T18:59:51.989Z,18793.72
2023-01-21T19:02:21.975Z,18809.97
2023-01-21T19:04:50.793Z,18791.69
2023-01-21T19:07:22.294Z,18775.44
2023-01-21T19:09:51.099Z,18809.97
2023-01-21T19:12:24.170Z,18777.47
2023-01-21T19:14:53.721Z,18769.34
2023-01-21T19:17:27.358Z,18814.03
2023-01-21T19:19:56.708Z,18769.34
2023-01-21T19:22:25.108Z,18793.72
2023-01-21T19:24:53.212Z,18793.72
2023-01-21T19:27:31.417Z,18793.72
2023-01-21T19:30:00.939Z,18787.63
2023-01-21T19:32:29.151Z,18830.31
2023-01-21T19:34:57.767Z,18775.44
2023-01-21T19:37:26.494Z,18789.66
2023-01-21T19:39:54.612Z,18801.84
2023-01-21T19:42:22.735Z,18781.53
2023-01-21T19:44:50.854Z,18779.50
2023-01-21T19:47:28.703Z,18775.44
2023-01-21T19:49:56.836Z,18789.66
2023-01-21T19:52:25.132Z,18781.53
2023-01-21T19:54:55.093Z,18769.34
2023-01-21T19:57:23.663Z,18801.84
2023-01-21T19:59:54.426Z,18773.41
2023-01-21T20:02:23.917Z,18742.94
2023-01-21T20:04:52.060Z,18771.38
2023-01-21T20:07:22.022Z,18773.41
2023-01-21T20:09:50.147Z,18789.66
2023-01-21T20:12:18.441Z,18785.59
2023-01-21T20:14:46.903Z,18757.16
2023-01-21T20:17:15.251Z,18826.25
2023-01-21T20:19:44.715Z,18769.34
2023-01-21T20:22:14.300Z,18777.47
2023-01-21T20:24:43.496Z,18793.72
2023-01-21T20:27:15.165Z,18775.44
2023-01-21T20:29:55.575Z,18793.72
2023-01-21T20:32:30.535Z,18793.72
2023-01-21T20:34:59.993Z,18783.56
2023-01-21T20:37:28.171Z,18814.03
2023-01-21T20:39:56.348Z,18797.78
2023-01-21T20:42:26.268Z,18785.59
2023-01-21T20:44:55.354Z,18783.56
2023-01-21T20:47:37.692Z,18767.31
2023-01-21T20:50:18.555Z,18787.63
2023-01-21T20:52:47.710Z,18783.56
2023-01-21T20:55:20.757Z,18781.53
2023-01-21T20:57:49.428Z,18785.59
2023-01-21T21:00:21.465Z,18781.53
2023-01-21T21:02:50.001Z,18777.47
2023-01-21T21:05:19.891Z,18791.69
2023-01-21T21:07:48.572Z,18783.56
2023-01-21T21:10:23.334Z,18789.66
2023-01-21T21:12:51.710Z,18785.59
2023-01-21T21:15:21.245Z,18775.44
2023-01-21T21:17:49.932Z,18773.41
2023-01-21T21:20:24.765Z,18783.56
2023-01-21T21:22:53.112Z,18783.56
2023-01-21T21:25:23.945Z,18775.44
2023-01-21T21:27:52.668Z,18773.41
2023-01-21T21:30:26.581Z,18781.53
2023-01-21T21:32:57.483Z,18781.53
2023-01-21T21:35:29.791Z,18793.72
2023-01-21T21:37:59.841Z,18777.47
2023-01-21T21:40:30.327Z,18795.75
2023-01-21T21:43:17.086Z,18781.53
2023-01-21T21:45:59.504Z,18781.53
2023-01-21T21:48:41.247Z,18789.66
2023-01-21T21:51:14.016Z,18785.59
2023-01-21T21:53:42.948Z,18771.38
2023-01-21T21:56:16.317Z,18742.94
2023-01-21T21:58:45.439Z,18769.34
2023-01-21T22:01:17.451Z,18779.50
2023-01-21T22:03:46.051Z,18779.50
2023-01-21T22:06:18.285Z,18789.66
2023-01-21T22:08:46.813Z,18785.59
2023-01-21T22:11:17.166Z,18803.88
2023-01-21T22:13:50.034Z,18773.41
2023-01-21T22:16:21.453Z,18799.81
2023-01-21T22:18:49.585Z,18769.34
2023-01-21T22:21:21.539Z,18771.38
2023-01-21T22:23:50.293Z,18763.25
2023-01-21T22:26:20.944Z,18757.16
2023-01-21T22:28:51.192Z,18785.59
2023-01-21T22:31:22.705Z,18803.88
2023-01-21T22:33:52.082Z,18781.53
2023-01-21T22:36:24.387Z,18773.41
2023-01-21T22:38:53.159Z,18781.53
2023-01-21T22:41:23.864Z,18779.50
2023-01-21T22:43:52.573Z,18757.16
2023-01-21T22:46:24.148Z,18751.06
2023-01-21T22:48:53.814Z,18771.38
2023-01-21T22:51:23.859Z,18791.69
2023-01-21T22:53:53.816Z,18777.47
2023-01-21T22:56:45.064Z,18781.53
2023-01-21T22:59:13.233Z,18789.66
2023-01-21T23:01:41.724Z,18744.97
2023-01-21T23:04:10.719Z,18785.59
2023-01-21T23:06:40.241Z,18769.34
2023-01-21T23:09:11.305Z,18809.97
2023-01-21T23:11:41.528Z,18777.47
2023-01-21T23:14:10.586Z,18775.44
2023-01-21T23:16:39.307Z,18791.69
2023-01-21T23:19:07.550Z,18740.91
2023-01-21T23:21:37.574Z,18755.13
2023-01-21T23:24:08.808Z,18787.63
2023-01-21T23:26:37.795Z,18761.22
2023-01-21T23:29:05.938Z,18779.50
2023-01-21T23:31:35.178Z,18757.16
2023-01-21T23:34:03.617Z,18771.38
2023-01-21T23:36:31.724Z,18777.47
2023-01-21T23:38:59.842Z,18769.34
2023-01-21T23:41:29.408Z,18781.53
2023-01-21T23:44:00.694Z,18789.66
2023-01-21T23:46:29.151Z,18785.59
2023-01-21T23:48:57.566Z,18805.91
2023-01-21T23:51:25.676Z,18777.47
2023-01-21T23:53:53.812Z,18795.75
2023-01-21T23:56:24.384Z,18779.50
2023-01-21T23:58:54.675Z,18755.13
